Lukin, Illinois
Current Conditions -  °F | °C
As of 11:55 AM on Monday 24 Nov 2014 (Local Time) from KAJG Reporting Station
Overcast Overcast  
Wind Chill: 35°   Ceiling: 3900
Heat Index: 45°   Visibility: 10mi
Dew Point: 34°   Wind: 25mph
Humidity: 66%   Direction: 250°WSW
Pressure: 29.67"   Gusts: 31mph
Location:  38.6498°N, 87.844°W
Report Text: KAJG 241755Z AUTO 25022G27KT 10SM SCT034 BKN039 OVC045 07/01 A2967 RMK AO2
Loading
Personal Weather Stations






























Interactive Weather Map New forecast layout! Learn more

10-Day Weather Forecast

Advertisements
Track Severe Weather on mobile